Aviation Digital Data Service (ADDS)

Output produced by METARs form (0434 UTC 28 July 2017)
found at http://www.aviationweather.gov/adds/metars/
 
METAR text: EHGG 280425Z AUTO 21009KT 9999 FEW015CB 14/13 Q1006 TEMPO 4000 SHRA SCT020CB
Conditions at: EHGG (GRONINGEN/EELDE , NL) observed 0425 UTC 28 July 2017
Temperature: 14.0°C (57°F)
Dewpoint: 13.0°C (55°F) [RH = 94%]
Pressure (altimeter): 29.70 inches Hg (1006.0 mb)
Winds: from the SSW (210 degrees) at 10 MPH (9 knots; 4.7 m/s)
Visibility: 6 or more miles (10+ km)
Ceiling: at least 12,000 feet AGL
Clouds: few clouds at 1500 feet AGL
Weather: no significant weather observed at this time